sensor_id;sensor_type;location;lat;lon;timestamp;P1;durP1;ratioP1;P2;durP2;ratioP2
23714;SDS011;12036;50.858;4.472;2023-01-09T00:01:15;0.68;;;0.60;;
23714;SDS011;12036;50.858;4.472;2023-01-09T00:03:49;1.20;;;0.70;;
23714;SDS011;12036;50.858;4.472;2023-01-09T00:06:14;2.72;;;0.73;;
23714;SDS011;12036;50.858;4.472;2023-01-09T00:08:40;1.15;;;0.50;;
23714;SDS011;12036;50.858;4.472;2023-01-09T00:11:06;3.65;;;0.80;;
23714;SDS011;12036;50.858;4.472;2023-01-09T00:13:32;0.80;;;0.70;;
23714;SDS011;12036;50.858;4.472;2023-01-09T00:15:58;1.02;;;0.75;;
23714;SDS011;12036;50.858;4.472;2023-01-09T00:18:24;3.03;;;0.77;;
23714;SDS011;12036;50.858;4.472;2023-01-09T00:20:50;2.72;;;0.80;;
23714;SDS011;12036;50.858;4.472;2023-01-09T00:23:16;1.30;;;0.60;;
23714;SDS011;12036;50.858;4.472;2023-01-09T00:25:42;6.22;;;1.05;;
23714;SDS011;12036;50.858;4.472;2023-01-09T00:28:08;6.47;;;0.90;;
23714;SDS011;12036;50.858;4.472;2023-01-09T00:30:33;2.70;;;0.95;;
23714;SDS011;12036;50.858;4.472;2023-01-09T00:32:59;1.83;;;1.05;;
23714;SDS011;12036;50.858;4.472;2023-01-09T00:35:25;2.55;;;0.77;;
23714;SDS011;12036;50.858;4.472;2023-01-09T00:37:52;1.77;;;0.75;;
23714;SDS011;12036;50.858;4.472;2023-01-09T00:40:19;3.90;;;0.80;;
23714;SDS011;12036;50.858;4.472;2023-01-09T00:42:45;1.77;;;0.75;;
23714;SDS011;12036;50.858;4.472;2023-01-09T00:45:19;1.45;;;0.75;;
23714;SDS011;12036;50.858;4.472;2023-01-09T00:47:53;4.45;;;1.00;;
23714;SDS011;12036;50.858;4.472;2023-01-09T00:50:23;3.30;;;1.30;;
23714;SDS011;12036;50.858;4.472;2023-01-09T00:52:53;3.55;;;1.05;;
23714;SDS011;12036;50.858;4.472;2023-01-09T00:55:20;3.20;;;1.00;;
23714;SDS011;12036;50.858;4.472;2023-01-09T00:57:47;1.52;;;0.73;;
23714;SDS011;12036;50.858;4.472;2023-01-09T01:00:13;1.65;;;0.77;;
23714;SDS011;12036;50.858;4.472;2023-01-09T01:02:39;4.93;;;0.90;;
23714;SDS011;12036;50.858;4.472;2023-01-09T01:05:04;2.65;;;1.00;;
23714;SDS011;12036;50.858;4.472;2023-01-09T01:07:49;7.82;;;1.25;;
23714;SDS011;12036;50.858;4.472;2023-01-09T01:10:17;5.45;;;1.10;;
23714;SDS011;12036;50.858;4.472;2023-01-09T01:12:46;2.95;;;1.08;;
23714;SDS011;12036;50.858;4.472;2023-01-09T01:15:13;7.05;;;1.02;;
23714;SDS011;12036;50.858;4.472;2023-01-09T01:17:40;2.22;;;0.70;;
23714;SDS011;12036;50.858;4.472;2023-01-09T01:20:07;4.85;;;0.70;;
23714;SDS011;12036;50.858;4.472;2023-01-09T01:22:35;1.90;;;0.65;;
23714;SDS011;12036;50.858;4.472;2023-01-09T01:25:01;3.13;;;1.00;;
23714;SDS011;12036;50.858;4.472;2023-01-09T01:27:27;4.95;;;1.00;;
23714;SDS011;12036;50.858;4.472;2023-01-09T01:29:53;2.30;;;1.00;;
23714;SDS011;12036;50.858;4.472;2023-01-09T01:32:19;5.22;;;1.00;;
23714;SDS011;12036;50.858;4.472;2023-01-09T01:34:45;2.10;;;0.88;;
23714;SDS011;12036;50.858;4.472;2023-01-09T01:37:10;6.43;;;0.95;;
23714;SDS011;12036;50.858;4.472;2023-01-09T01:39:36;3.17;;;0.80;;
23714;SDS011;12036;50.858;4.472;2023-01-09T01:42:02;5.32;;;0.80;;
23714;SDS011;12036;50.858;4.472;2023-01-09T01:45:15;5.00;;;0.90;;
23714;SDS011;12036;50.858;4.472;2023-01-09T01:47:20;6.78;;;0.77;;
23714;SDS011;12036;50.858;4.472;2023-01-09T01:49:51;9.10;;;1.10;;
23714;SDS011;12036;50.858;4.472;2023-01-09T01:52:17;4.20;;;0.60;;
23714;SDS011;12036;50.858;4.472;2023-01-09T01:54:44;5.15;;;0.95;;
23714;SDS011;12036;50.858;4.472;2023-01-09T01:57:11;3.28;;;0.60;;
23714;SDS011;12036;50.858;4.472;2023-01-09T01:59:38;2.90;;;0.82;;
23714;SDS011;12036;50.858;4.472;2023-01-09T02:02:08;3.17;;;0.68;;
23714;SDS011;12036;50.858;4.472;2023-01-09T02:04:35;2.63;;;0.80;;
23714;SDS011;12036;50.858;4.472;2023-01-09T02:07:06;3.20;;;0.80;;
23714;SDS011;12036;50.858;4.472;2023-01-09T02:09:33;1.10;;;0.60;;
23714;SDS011;12036;50.858;4.472;2023-01-09T02:11:59;4.95;;;0.85;;
23714;SDS011;12036;50.858;4.472;2023-01-09T02:14:27;3.65;;;0.70;;
23714;SDS011;12036;50.858;4.472;2023-01-09T02:17:02;6.80;;;1.10;;
23714;SDS011;12036;50.858;4.472;2023-01-09T02:30:55;5.65;;;0.90;;
23714;SDS011;12036;50.858;4.472;2023-01-09T02:39:06;2.40;;;0.57;;
23714;SDS011;12036;50.858;4.472;2023-01-09T02:41:39;1.45;;;0.75;;
23714;SDS011;12036;50.858;4.472;2023-01-09T02:44:20;1.90;;;0.70;;
23714;SDS011;12036;50.858;4.472;2023-01-09T02:46:58;2.92;;;0.90;;
23714;SDS011;12036;50.858;4.472;2023-01-09T02:49:25;5.13;;;0.75;;
23714;SDS011;12036;50.858;4.472;2023-01-09T02:51:53;6.47;;;1.02;;
23714;SDS011;12036;50.858;4.472;2023-01-09T02:54:44;4.88;;;0.75;;
23714;SDS011;12036;50.858;4.472;2023-01-09T03:05:20;3.47;;;1.50;;
23714;SDS011;12036;50.858;4.472;2023-01-09T03:10:38;1.90;;;0.70;;
23714;SDS011;12036;50.858;4.472;2023-01-09T03:13:20;4.25;;;0.95;;
23714;SDS011;12036;50.858;4.472;2023-01-09T03:15:48;4.97;;;1.10;;
23714;SDS011;12036;50.858;4.472;2023-01-09T03:18:16;4.28;;;1.10;;
23714;SDS011;12036;50.858;4.472;2023-01-09T03:20:46;3.92;;;1.20;;
23714;SDS011;12036;50.858;4.472;2023-01-09T03:23:12;3.10;;;1.27;;
23714;SDS011;12036;50.858;4.472;2023-01-09T03:25:38;5.10;;;0.95;;
23714;SDS011;12036;50.858;4.472;2023-01-09T03:28:04;3.03;;;0.80;;
23714;SDS011;12036;50.858;4.472;2023-01-09T03:30:33;3.95;;;1.10;;
23714;SDS011;12036;50.858;4.472;2023-01-09T03:32:59;7.47;;;0.93;;
23714;SDS011;12036;50.858;4.472;2023-01-09T03:35:26;6.63;;;1.48;;
23714;SDS011;12036;50.858;4.472;2023-01-09T03:37:52;7.93;;;1.55;;
23714;SDS011;12036;50.858;4.472;2023-01-09T03:40:18;4.50;;;0.90;;
23714;SDS011;12036;50.858;4.472;2023-01-09T03:42:44;4.90;;;0.80;;
23714;SDS011;12036;50.858;4.472;2023-01-09T03:45:09;2.78;;;0.60;;
23714;SDS011;12036;50.858;4.472;2023-01-09T03:47:36;4.00;;;0.90;;
23714;SDS011;12036;50.858;4.472;2023-01-09T03:50:01;5.88;;;0.90;;
23714;SDS011;12036;50.858;4.472;2023-01-09T03:52:27;6.30;;;1.27;;
23714;SDS011;12036;50.858;4.472;2023-01-09T03:54:53;2.85;;;0.80;;
23714;SDS011;12036;50.858;4.472;2023-01-09T03:57:18;2.92;;;0.65;;
23714;SDS011;12036;50.858;4.472;2023-01-09T03:59:44;5.20;;;0.95;;
23714;SDS011;12036;50.858;4.472;2023-01-09T04:02:10;6.55;;;1.00;;
23714;SDS011;12036;50.858;4.472;2023-01-09T04:04:35;4.93;;;0.68;;
23714;SDS011;12036;50.858;4.472;2023-01-09T04:07:01;6.20;;;1.23;;
23714;SDS011;12036;50.858;4.472;2023-01-09T04:09:26;3.60;;;0.95;;
23714;SDS011;12036;50.858;4.472;2023-01-09T04:11:52;5.60;;;0.98;;
23714;SDS011;12036;50.858;4.472;2023-01-09T04:14:18;7.95;;;0.80;;
23714;SDS011;12036;50.858;4.472;2023-01-09T04:16:44;4.68;;;1.02;;
23714;SDS011;12036;50.858;4.472;2023-01-09T04:19:09;4.75;;;1.33;;
23714;SDS011;12036;50.858;4.472;2023-01-09T04:21:35;6.18;;;1.20;;
23714;SDS011;12036;50.858;4.472;2023-01-09T04:24:00;1.70;;;0.82;;
23714;SDS011;12036;50.858;4.472;2023-01-09T04:26:27;4.90;;;0.90;;
23714;SDS011;12036;50.858;4.472;2023-01-09T04:28:53;7.30;;;1.33;;
23714;SDS011;12036;50.858;4.472;2023-01-09T04:31:19;8.00;;;1.30;;
23714;SDS011;12036;50.858;4.472;2023-01-09T04:33:44;3.90;;;0.90;;
23714;SDS011;12036;50.858;4.472;2023-01-09T04:36:11;2.88;;;0.82;;
23714;SDS011;12036;50.858;4.472;2023-01-09T04:38:36;9.90;;;1.40;;
23714;SDS011;12036;50.858;4.472;2023-01-09T04:41:02;6.88;;;1.05;;
23714;SDS011;12036;50.858;4.472;2023-01-09T04:43:28;6.90;;;1.25;;
23714;SDS011;12036;50.858;4.472;2023-01-09T04:45:53;9.60;;;1.60;;
23714;SDS011;12036;50.858;4.472;2023-01-09T04:48:19;9.55;;;1.38;;
23714;SDS011;12036;50.858;4.472;2023-01-09T04:50:45;4.40;;;1.20;;
23714;SDS011;12036;50.858;4.472;2023-01-09T04:53:10;6.82;;;1.85;;
23714;SDS011;12036;50.858;4.472;2023-01-09T04:55:36;8.57;;;1.10;;
23714;SDS011;12036;50.858;4.472;2023-01-09T04:58:01;6.40;;;1.02;;
23714;SDS011;12036;50.858;4.472;2023-01-09T05:00:27;5.32;;;1.25;;
23714;SDS011;12036;50.858;4.472;2023-01-09T05:02:53;10.35;;;1.55;;
23714;SDS011;12036;50.858;4.472;2023-01-09T05:05:18;6.55;;;1.13;;
23714;SDS011;12036;50.858;4.472;2023-01-09T05:07:44;7.28;;;1.05;;
23714;SDS011;12036;50.858;4.472;2023-01-09T05:10:10;6.82;;;1.27;;
23714;SDS011;12036;50.858;4.472;2023-01-09T05:12:36;3.33;;;0.90;;
23714;SDS011;12036;50.858;4.472;2023-01-09T05:15:03;4.85;;;0.77;;
23714;SDS011;12036;50.858;4.472;2023-01-09T05:17:30;6.10;;;0.93;;
23714;SDS011;12036;50.858;4.472;2023-01-09T05:19:56;8.23;;;1.23;;
23714;SDS011;12036;50.858;4.472;2023-01-09T05:22:22;2.65;;;0.60;;
23714;SDS011;12036;50.858;4.472;2023-01-09T05:24:47;5.47;;;0.80;;
23714;SDS011;12036;50.858;4.472;2023-01-09T05:27:13;4.32;;;0.80;;
23714;SDS011;12036;50.858;4.472;2023-01-09T05:29:39;3.63;;;0.90;;
23714;SDS011;12036;50.858;4.472;2023-01-09T05:32:04;5.57;;;1.20;;
23714;SDS011;12036;50.858;4.472;2023-01-09T05:34:30;5.05;;;0.90;;
23714;SDS011;12036;50.858;4.472;2023-01-09T05:36:55;8.45;;;1.20;;
23714;SDS011;12036;50.858;4.472;2023-01-09T05:39:21;6.43;;;1.48;;
23714;SDS011;12036;50.858;4.472;2023-01-09T05:41:47;4.22;;;0.93;;
23714;SDS011;12036;50.858;4.472;2023-01-09T05:44:12;6.70;;;0.93;;
23714;SDS011;12036;50.858;4.472;2023-01-09T05:46:38;5.10;;;0.80;;
23714;SDS011;12036;50.858;4.472;2023-01-09T05:49:04;4.43;;;1.15;;
23714;SDS011;12036;50.858;4.472;2023-01-09T05:51:29;8.45;;;1.10;;
23714;SDS011;12036;50.858;4.472;2023-01-09T05:53:56;5.40;;;0.93;;
23714;SDS011;12036;50.858;4.472;2023-01-09T05:56:22;13.07;;;1.55;;
23714;SDS011;12036;50.858;4.472;2023-01-09T05:58:48;6.30;;;1.15;;
23714;SDS011;12036;50.858;4.472;2023-01-09T06:01:13;4.30;;;0.88;;
23714;SDS011;12036;50.858;4.472;2023-01-09T06:03:39;4.25;;;0.95;;
23714;SDS011;12036;50.858;4.472;2023-01-09T06:06:04;6.45;;;1.02;;
23714;SDS011;12036;50.858;4.472;2023-01-09T06:08:30;4.15;;;0.90;;
23714;SDS011;12036;50.858;4.472;2023-01-09T06:10:56;4.68;;;1.00;;
23714;SDS011;12036;50.858;4.472;2023-01-09T06:13:21;5.70;;;0.90;;
23714;SDS011;12036;50.858;4.472;2023-01-09T06:15:47;5.43;;;0.80;;
23714;SDS011;12036;50.858;4.472;2023-01-09T06:18:13;6.13;;;1.00;;
23714;SDS011;12036;50.858;4.472;2023-01-09T06:20:39;2.53;;;0.70;;
23714;SDS011;12036;50.858;4.472;2023-01-09T06:23:05;2.92;;;0.50;;
23714;SDS011;12036;50.858;4.472;2023-01-09T06:25:30;6.50;;;0.80;;
23714;SDS011;12036;50.858;4.472;2023-01-09T06:27:56;3.22;;;0.70;;
23714;SDS011;12036;50.858;4.472;2023-01-09T06:30:22;2.70;;;0.82;;
23714;SDS011;12036;50.858;4.472;2023-01-09T06:32:48;6.10;;;1.10;;
23714;SDS011;12036;50.858;4.472;2023-01-09T06:35:15;4.38;;;0.98;;
23714;SDS011;12036;50.858;4.472;2023-01-09T06:37:44;4.50;;;0.80;;
23714;SDS011;12036;50.858;4.472;2023-01-09T06:40:11;3.50;;;1.10;;
23714;SDS011;12036;50.858;4.472;2023-01-09T06:42:37;4.65;;;0.65;;
23714;SDS011;12036;50.858;4.472;2023-01-09T06:45:03;3.03;;;0.70;;
23714;SDS011;12036;50.858;4.472;2023-01-09T06:47:29;5.90;;;0.90;;
23714;SDS011;12036;50.858;4.472;2023-01-09T06:49:54;5.20;;;0.70;;
23714;SDS011;12036;50.858;4.472;2023-01-09T06:52:22;5.13;;;1.00;;
23714;SDS011;12036;50.858;4.472;2023-01-09T06:54:47;3.75;;;0.90;;
23714;SDS011;12036;50.858;4.472;2023-01-09T06:57:13;2.83;;;0.90;;
23714;SDS011;12036;50.858;4.472;2023-01-09T06:59:40;4.00;;;0.90;;
23714;SDS011;12036;50.858;4.472;2023-01-09T07:02:05;3.47;;;0.80;;
23714;SDS011;12036;50.858;4.472;2023-01-09T07:04:43;3.85;;;0.80;;
23714;SDS011;12036;50.858;4.472;2023-01-09T07:07:08;4.50;;;1.00;;
23714;SDS011;12036;50.858;4.472;2023-01-09T07:09:34;2.33;;;0.60;;
23714;SDS011;12036;50.858;4.472;2023-01-09T07:12:00;3.45;;;0.80;;
23714;SDS011;12036;50.858;4.472;2023-01-09T07:14:25;4.30;;;0.70;;
23714;SDS011;12036;50.858;4.472;2023-01-09T07:16:51;2.95;;;0.80;;
23714;SDS011;12036;50.858;4.472;2023-01-09T07:19:17;3.83;;;0.98;;
23714;SDS011;12036;50.858;4.472;2023-01-09T07:21:42;4.35;;;0.65;;
23714;SDS011;12036;50.858;4.472;2023-01-09T07:24:08;7.25;;;0.90;;
23714;SDS011;12036;50.858;4.472;2023-01-09T07:26:34;2.92;;;0.60;;
23714;SDS011;12036;50.858;4.472;2023-01-09T07:28:59;3.53;;;0.52;;
23714;SDS011;12036;50.858;4.472;2023-01-09T07:31:25;3.97;;;1.00;;
23714;SDS011;12036;50.858;4.472;2023-01-09T07:33:50;2.72;;;0.60;;
23714;SDS011;12036;50.858;4.472;2023-01-09T07:36:16;5.57;;;0.85;;
23714;SDS011;12036;50.858;4.472;2023-01-09T07:38:42;2.30;;;0.88;;
23714;SDS011;12036;50.858;4.472;2023-01-09T07:41:07;3.58;;;1.13;;
23714;SDS011;12036;50.858;4.472;2023-01-09T07:43:33;4.15;;;0.80;;
23714;SDS011;12036;50.858;4.472;2023-01-09T07:45:59;3.60;;;0.90;;
23714;SDS011;12036;50.858;4.472;2023-01-09T07:48:25;2.05;;;0.68;;
23714;SDS011;12036;50.858;4.472;2023-01-09T07:50:51;7.22;;;1.05;;
23714;SDS011;12036;50.858;4.472;2023-01-09T07:53:16;6.53;;;1.20;;
23714;SDS011;12036;50.858;4.472;2023-01-09T07:55:42;3.33;;;1.10;;
23714;SDS011;12036;50.858;4.472;2023-01-09T07:58:08;2.33;;;1.00;;
23714;SDS011;12036;50.858;4.472;2023-01-09T08:00:33;4.18;;;1.10;;
23714;SDS011;12036;50.858;4.472;2023-01-09T08:02:59;4.93;;;0.90;;
23714;SDS011;12036;50.858;4.472;2023-01-09T08:05:25;6.20;;;0.98;;
23714;SDS011;12036;50.858;4.472;2023-01-09T08:07:50;7.32;;;1.10;;
23714;SDS011;12036;50.858;4.472;2023-01-09T08:10:17;5.63;;;1.10;;
23714;SDS011;12036;50.858;4.472;2023-01-09T08:12:44;4.45;;;1.00;;
23714;SDS011;12036;50.858;4.472;2023-01-09T08:15:10;4.10;;;1.00;;
23714;SDS011;12036;50.858;4.472;2023-01-09T08:17:36;4.72;;;0.90;;
23714;SDS011;12036;50.858;4.472;2023-01-09T08:20:03;5.60;;;0.98;;
23714;SDS011;12036;50.858;4.472;2023-01-09T08:22:29;3.65;;;1.30;;
23714;SDS011;12036;50.858;4.472;2023-01-09T08:24:55;2.83;;;1.00;;
23714;SDS011;12036;50.858;4.472;2023-01-09T08:27:20;2.22;;;0.90;;
23714;SDS011;12036;50.858;4.472;2023-01-09T08:29:46;5.22;;;1.33;;
23714;SDS011;12036;50.858;4.472;2023-01-09T08:32:12;4.00;;;0.88;;
23714;SDS011;12036;50.858;4.472;2023-01-09T08:34:37;7.57;;;0.85;;
23714;SDS011;12036;50.858;4.472;2023-01-09T08:37:03;5.85;;;0.82;;
23714;SDS011;12036;50.858;4.472;2023-01-09T08:39:29;2.50;;;0.65;;
23714;SDS011;12036;50.858;4.472;2023-01-09T08:41:54;5.03;;;1.00;;
23714;SDS011;12036;50.858;4.472;2023-01-09T08:44:38;4.47;;;1.02;;
23714;SDS011;12036;50.858;4.472;2023-01-09T08:47:23;2.55;;;0.68;;
23714;SDS011;12036;50.858;4.472;2023-01-09T08:49:48;4.13;;;0.73;;
23714;SDS011;12036;50.858;4.472;2023-01-09T08:52:14;2.20;;;0.60;;
23714;SDS011;12036;50.858;4.472;2023-01-09T08:54:39;3.35;;;0.60;;
23714;SDS011;12036;50.858;4.472;2023-01-09T08:57:05;10.23;;;0.60;;
23714;SDS011;12036;50.858;4.472;2023-01-09T08:59:32;5.28;;;0.50;;
23714;SDS011;12036;50.858;4.472;2023-01-09T09:01:58;4.35;;;0.60;;
23714;SDS011;12036;50.858;4.472;2023-01-09T09:04:23;1.35;;;0.50;;
23714;SDS011;12036;50.858;4.472;2023-01-09T09:06:49;2.30;;;0.75;;
23714;SDS011;12036;50.858;4.472;2023-01-09T09:09:15;3.53;;;0.55;;
23714;SDS011;12036;50.858;4.472;2023-01-09T09:11:40;1.52;;;0.50;;
23714;SDS011;12036;50.858;4.472;2023-01-09T09:14:06;3.15;;;0.40;;
23714;SDS011;12036;50.858;4.472;2023-01-09T09:16:51;1.65;;;0.40;;
23714;SDS011;12036;50.858;4.472;2023-01-09T09:19:17;0.82;;;0.43;;
23714;SDS011;12036;50.858;4.472;2023-01-09T09:21:43;2.88;;;0.63;;
23714;SDS011;12036;50.858;4.472;2023-01-09T09:24:08;1.55;;;0.47;;
23714;SDS011;12036;50.858;4.472;2023-01-09T09:26:34;0.93;;;0.30;;
23714;SDS011;12036;50.858;4.472;2023-01-09T09:29:00;4.25;;;0.40;;
23714;SDS011;12036;50.858;4.472;2023-01-09T09:31:25;1.05;;;0.30;;
23714;SDS011;12036;50.858;4.472;2023-01-09T09:33:51;2.28;;;0.40;;
23714;SDS011;12036;50.858;4.472;2023-01-09T09:36:17;0.88;;;0.30;;
23714;SDS011;12036;50.858;4.472;2023-01-09T09:38:42;3.15;;;0.47;;
23714;SDS011;12036;50.858;4.472;2023-01-09T09:41:13;2.22;;;0.40;;
23714;SDS011;12036;50.858;4.472;2023-01-09T09:49:50;0.90;;;0.50;;
23714;SDS011;12036;50.858;4.472;2023-01-09T09:55:00;2.33;;;0.40;;
23714;SDS011;12036;50.858;4.472;2023-01-09T09:57:34;1.20;;;0.40;;
23714;SDS011;12036;50.858;4.472;2023-01-09T10:00:02;1.60;;;0.40;;
23714;SDS011;12036;50.858;4.472;2023-01-09T10:02:31;0.65;;;0.32;;
23714;SDS011;12036;50.858;4.472;2023-01-09T10:05:11;0.63;;;0.40;;
23714;SDS011;12036;50.858;4.472;2023-01-09T10:07:44;1.63;;;0.60;;
23714;SDS011;12036;50.858;4.472;2023-01-09T10:12:53;2.05;;;0.30;;
23714;SDS011;12036;50.858;4.472;2023-01-09T10:15:35;1.77;;;0.47;;
23714;SDS011;12036;50.858;4.472;2023-01-09T10:26:01;2.53;;;0.47;;
23714;SDS011;12036;50.858;4.472;2023-01-09T10:31:33;1.75;;;0.40;;
23714;SDS011;12036;50.858;4.472;2023-01-09T10:39:47;1.05;;;0.43;;
23714;SDS011;12036;50.858;4.472;2023-01-09T10:42:30;0.80;;;0.50;;
23714;SDS011;12036;50.858;4.472;2023-01-09T10:47:48;0.80;;;0.43;;
23714;SDS011;12036;50.858;4.472;2023-01-09T10:52:45;1.23;;;0.60;;
23714;SDS011;12036;50.858;4.472;2023-01-09T10:55:18;1.90;;;0.50;;
23714;SDS011;12036;50.858;4.472;2023-01-09T10:58:12;5.03;;;0.60;;
23714;SDS011;12036;50.858;4.472;2023-01-09T11:00:40;1.40;;;0.47;;
23714;SDS011;12036;50.858;4.472;2023-01-09T11:03:14;1.55;;;0.40;;
23714;SDS011;12036;50.858;4.472;2023-01-09T11:05:52;4.00;;;0.70;;
23714;SDS011;12036;50.858;4.472;2023-01-09T11:08:30;0.98;;;0.63;;
23714;SDS011;12036;50.858;4.472;2023-01-09T11:11:01;1.58;;;0.68;;
23714;SDS011;12036;50.858;4.472;2023-01-09T11:13:28;2.60;;;0.80;;
23714;SDS011;12036;50.858;4.472;2023-01-09T11:16:00;3.00;;;0.73;;
23714;SDS011;12036;50.858;4.472;2023-01-09T11:18:33;2.85;;;0.90;;
23714;SDS011;12036;50.858;4.472;2023-01-09T11:21:24;4.10;;;0.70;;
23714;SDS011;12036;50.858;4.472;2023-01-09T11:23:52;2.25;;;0.77;;
23714;SDS011;12036;50.858;4.472;2023-01-09T11:26:22;3.08;;;0.88;;
23714;SDS011;12036;50.858;4.472;2023-01-09T11:31:29;2.50;;;0.80;;
23714;SDS011;12036;50.858;4.472;2023-01-09T11:33:55;2.75;;;0.90;;
23714;SDS011;12036;50.858;4.472;2023-01-09T11:36:22;3.22;;;0.93;;
23714;SDS011;12036;50.858;4.472;2023-01-09T11:38:56;4.18;;;0.70;;
23714;SDS011;12036;50.858;4.472;2023-01-09T11:41:25;2.78;;;1.00;;
23714;SDS011;12036;50.858;4.472;2023-01-09T11:43:58;3.22;;;0.85;;
23714;SDS011;12036;50.858;4.472;2023-01-09T11:46:43;1.88;;;0.73;;
23714;SDS011;12036;50.858;4.472;2023-01-09T11:51:42;2.00;;;0.85;;
23714;SDS011;12036;50.858;4.472;2023-01-09T11:54:42;5.60;;;0.80;;
23714;SDS011;12036;50.858;4.472;2023-01-09T11:57:02;1.77;;;1.17;;
23714;SDS011;12036;50.858;4.472;2023-01-09T11:59:28;4.90;;;1.05;;
23714;SDS011;12036;50.858;4.472;2023-01-09T12:04:36;5.03;;;1.10;;
23714;SDS011;12036;50.858;4.472;2023-01-09T12:10:02;3.47;;;1.23;;
23714;SDS011;12036;50.858;4.472;2023-01-09T12:15:32;3.95;;;1.10;;
23714;SDS011;12036;50.858;4.472;2023-01-09T12:18:09;3.80;;;1.15;;
23714;SDS011;12036;50.858;4.472;2023-01-09T12:35:04;5.82;;;1.42;;
23714;SDS011;12036;50.858;4.472;2023-01-09T12:50:56;6.95;;;1.73;;
23714;SDS011;12036;50.858;4.472;2023-01-09T12:53:26;4.13;;;1.45;;
23714;SDS011;12036;50.858;4.472;2023-01-09T12:56:11;1.98;;;1.10;;
23714;SDS011;12036;50.858;4.472;2023-01-09T12:58:59;3.80;;;1.30;;
23714;SDS011;12036;50.858;4.472;2023-01-09T13:01:32;3.45;;;1.80;;
23714;SDS011;12036;50.858;4.472;2023-01-09T13:06:51;5.82;;;1.52;;
23714;SDS011;12036;50.858;4.472;2023-01-09T13:09:31;9.20;;;2.10;;
23714;SDS011;12036;50.858;4.472;2023-01-09T13:12:15;5.38;;;1.50;;
23714;SDS011;12036;50.858;4.472;2023-01-09T13:17:30;9.18;;;1.77;;
23714;SDS011;12036;50.858;4.472;2023-01-09T13:20:18;8.60;;;1.60;;
23714;SDS011;12036;50.858;4.472;2023-01-09T13:22:58;7.93;;;2.00;;
23714;SDS011;12036;50.858;4.472;2023-01-09T13:25:44;5.80;;;1.73;;
23714;SDS011;12036;50.858;4.472;2023-01-09T13:28:34;6.32;;;1.67;;
23714;SDS011;12036;50.858;4.472;2023-01-09T13:31:31;8.82;;;1.90;;
23714;SDS011;12036;50.858;4.472;2023-01-09T13:34:05;7.57;;;1.60;;
23714;SDS011;12036;50.858;4.472;2023-01-09T13:36:38;3.70;;;1.45;;
23714;SDS011;12036;50.858;4.472;2023-01-09T13:39:15;7.53;;;1.70;;
23714;SDS011;12036;50.858;4.472;2023-01-09T13:41:57;5.93;;;1.92;;
23714;SDS011;12036;50.858;4.472;2023-01-09T13:44:44;5.50;;;2.17;;
23714;SDS011;12036;50.858;4.472;2023-01-09T13:47:16;7.45;;;2.10;;
23714;SDS011;12036;50.858;4.472;2023-01-09T13:59:44;7.38;;;1.73;;
23714;SDS011;12036;50.858;4.472;2023-01-09T14:04:59;9.52;;;2.28;;
23714;SDS011;12036;50.858;4.472;2023-01-09T14:07:36;5.90;;;1.73;;
23714;SDS011;12036;50.858;4.472;2023-01-09T14:12:49;9.20;;;1.70;;
23714;SDS011;12036;50.858;4.472;2023-01-09T14:15:32;6.35;;;1.80;;
23714;SDS011;12036;50.858;4.472;2023-01-09T14:18:03;8.82;;;1.83;;
23714;SDS011;12036;50.858;4.472;2023-01-09T14:20:58;7.60;;;1.88;;
23714;SDS011;12036;50.858;4.472;2023-01-09T14:23:38;7.30;;;1.70;;
23714;SDS011;12036;50.858;4.472;2023-01-09T14:26:39;8.13;;;1.58;;
23714;SDS011;12036;50.858;4.472;2023-01-09T14:34:56;7.03;;;1.90;;
23714;SDS011;12036;50.858;4.472;2023-01-09T14:37:44;7.70;;;1.70;;
23714;SDS011;12036;50.858;4.472;2023-01-09T14:40:22;13.38;;;3.03;;
23714;SDS011;12036;50.858;4.472;2023-01-09T14:42:50;10.15;;;1.60;;
23714;SDS011;12036;50.858;4.472;2023-01-09T14:45:22;5.82;;;1.80;;
23714;SDS011;12036;50.858;4.472;2023-01-09T14:48:22;8.85;;;1.83;;
23714;SDS011;12036;50.858;4.472;2023-01-09T14:50:49;6.20;;;1.90;;
23714;SDS011;12036;50.858;4.472;2023-01-09T14:53:22;6.75;;;1.60;;
23714;SDS011;12036;50.858;4.472;2023-01-09T14:55:57;9.02;;;1.77;;
23714;SDS011;12036;50.858;4.472;2023-01-09T14:58:27;5.28;;;1.42;;
23714;SDS011;12036;50.858;4.472;2023-01-09T15:00:59;10.27;;;1.75;;
23714;SDS011;12036;50.858;4.472;2023-01-09T15:05:54;7.07;;;1.40;;
23714;SDS011;12036;50.858;4.472;2023-01-09T15:08:21;8.40;;;1.52;;
23714;SDS011;12036;50.858;4.472;2023-01-09T15:10:50;8.40;;;1.42;;
23714;SDS011;12036;50.858;4.472;2023-01-09T15:13:21;5.78;;;1.63;;
23714;SDS011;12036;50.858;4.472;2023-01-09T15:16:05;11.30;;;1.58;;
23714;SDS011;12036;50.858;4.472;2023-01-09T15:18:39;8.30;;;1.30;;
23714;SDS011;12036;50.858;4.472;2023-01-09T15:21:10;7.75;;;1.45;;
23714;SDS011;12036;50.858;4.472;2023-01-09T15:23:49;5.15;;;1.40;;
23714;SDS011;12036;50.858;4.472;2023-01-09T15:26:28;3.15;;;1.17;;
23714;SDS011;12036;50.858;4.472;2023-01-09T15:29:04;6.47;;;1.45;;
23714;SDS011;12036;50.858;4.472;2023-01-09T15:31:45;3.83;;;1.33;;
23714;SDS011;12036;50.858;4.472;2023-01-09T15:34:19;5.47;;;1.02;;
23714;SDS011;12036;50.858;4.472;2023-01-09T15:36:47;3.22;;;1.30;;
23714;SDS011;12036;50.858;4.472;2023-01-09T15:39:16;4.30;;;1.15;;
23714;SDS011;12036;50.858;4.472;2023-01-09T15:41:46;9.60;;;1.25;;
23714;SDS011;12036;50.858;4.472;2023-01-09T15:44:30;3.53;;;1.17;;
23714;SDS011;12036;50.858;4.472;2023-01-09T15:47:00;3.08;;;1.08;;
23714;SDS011;12036;50.858;4.472;2023-01-09T15:49:29;3.50;;;1.27;;
23714;SDS011;12036;50.858;4.472;2023-01-09T15:51:56;6.53;;;1.42;;
23714;SDS011;12036;50.858;4.472;2023-01-09T15:54:26;7.88;;;1.55;;
23714;SDS011;12036;50.858;4.472;2023-01-09T15:57:48;4.90;;;1.40;;
23714;SDS011;12036;50.858;4.472;2023-01-09T15:59:53;10.75;;;1.45;;
23714;SDS011;12036;50.858;4.472;2023-01-09T16:02:21;6.70;;;1.50;;
23714;SDS011;12036;50.858;4.472;2023-01-09T16:05:16;7.97;;;1.67;;
23714;SDS011;12036;50.858;4.472;2023-01-09T16:07:43;10.02;;;2.30;;
23714;SDS011;12036;50.858;4.472;2023-01-09T16:10:21;7.18;;;1.70;;
23714;SDS011;12036;50.858;4.472;2023-01-09T16:12:49;3.30;;;1.38;;
23714;SDS011;12036;50.858;4.472;2023-01-09T16:15:16;8.02;;;1.52;;
23714;SDS011;12036;50.858;4.472;2023-01-09T16:18:05;7.22;;;1.75;;
23714;SDS011;12036;50.858;4.472;2023-01-09T16:20:39;11.60;;;1.73;;
23714;SDS011;12036;50.858;4.472;2023-01-09T16:23:17;6.35;;;1.80;;
23714;SDS011;12036;50.858;4.472;2023-01-09T16:25:45;4.55;;;1.80;;
23714;SDS011;12036;50.858;4.472;2023-01-09T16:28:15;4.38;;;1.60;;
23714;SDS011;12036;50.858;4.472;2023-01-09T16:30:51;5.70;;;1.83;;
23714;SDS011;12036;50.858;4.472;2023-01-09T16:33:22;5.40;;;1.75;;
23714;SDS011;12036;50.858;4.472;2023-01-09T16:35:50;7.75;;;1.77;;
23714;SDS011;12036;50.858;4.472;2023-01-09T16:38:16;6.00;;;2.20;;
23714;SDS011;12036;50.858;4.472;2023-01-09T16:41:04;5.75;;;1.95;;
23714;SDS011;12036;50.858;4.472;2023-01-09T16:43:48;8.65;;;1.90;;
23714;SDS011;12036;50.858;4.472;2023-01-09T16:46:15;8.60;;;2.20;;
23714;SDS011;12036;50.858;4.472;2023-01-09T16:48:43;7.38;;;2.20;;
23714;SDS011;12036;50.858;4.472;2023-01-09T16:51:17;8.10;;;2.22;;
23714;SDS011;12036;50.858;4.472;2023-01-09T16:53:44;9.15;;;2.50;;
23714;SDS011;12036;50.858;4.472;2023-01-09T16:56:31;7.35;;;2.20;;
23714;SDS011;12036;50.858;4.472;2023-01-09T16:58:57;5.47;;;2.17;;
23714;SDS011;12036;50.858;4.472;2023-01-09T17:01:23;5.47;;;2.10;;
23714;SDS011;12036;50.858;4.472;2023-01-09T17:03:49;6.88;;;2.28;;
23714;SDS011;12036;50.858;4.472;2023-01-09T17:06:24;6.20;;;2.20;;
23714;SDS011;12036;50.858;4.472;2023-01-09T17:08:52;7.70;;;1.90;;
23714;SDS011;12036;50.858;4.472;2023-01-09T17:11:27;7.68;;;2.42;;
23714;SDS011;12036;50.858;4.472;2023-01-09T17:13:55;5.90;;;2.28;;
23714;SDS011;12036;50.858;4.472;2023-01-09T17:16:22;7.13;;;2.42;;